createdAt,value
2023-01-23T00:01:27.369Z,43.13
2023-01-23T00:03:55.403Z,40.65
2023-01-23T00:06:22.494Z,37.38
2023-01-23T00:08:49.243Z,40.80
2023-01-23T00:11:25.418Z,38.05
2023-01-23T00:13:52.916Z,37.00
2023-01-23T00:16:22.094Z,37.85
2023-01-23T00:18:49.804Z,35.45
2023-01-23T00:21:19.296Z,38.83
2023-01-23T00:23:54.260Z,35.17
2023-01-23T00:26:24.377Z,31.33
2023-01-23T00:28:51.847Z,33.42
2023-01-23T00:31:30.803Z,32.25
2023-01-23T00:34:00.197Z,32.40
2023-01-23T00:36:38.108Z,31.83
2023-01-23T00:39:11.617Z,26.95
2023-01-23T00:41:38.112Z,29.98
2023-01-23T00:44:04.806Z,26.57
2023-01-23T00:46:31.470Z,28.48
2023-01-23T00:48:58.053Z,25.13
2023-01-23T00:51:24.695Z,25.15
2023-01-23T00:53:52.646Z,24.00
2023-01-23T00:56:19.379Z,21.53
2023-01-23T00:58:45.955Z,23.70
2023-01-23T01:01:14.069Z,26.52
2023-01-23T01:03:40.676Z,22.35
2023-01-23T01:06:07.292Z,22.38
2023-01-23T01:08:34.180Z,25.80
2023-01-23T01:11:00.927Z,74.88
2023-01-23T01:13:27.811Z,64.90
2023-01-23T01:15:55.122Z,50.38
2023-01-23T01:18:23.261Z,45.50
2023-01-23T01:20:50.171Z,21.77
2023-01-23T01:23:17.018Z,31.27
2023-01-23T01:25:43.496Z,47.88
2023-01-23T01:28:09.915Z,40.25
2023-01-23T01:30:36.888Z,25.75
2023-01-23T01:33:03.994Z,29.15
2023-01-23T01:35:30.502Z,24.63
2023-01-23T01:37:56.890Z,24.50
2023-01-23T01:40:27.831Z,24.88
2023-01-23T01:43:00.891Z,25.13
2023-01-23T01:46:05.679Z,28.07
2023-01-23T01:48:55.388Z,23.98
2023-01-23T01:51:34.046Z,24.48
2023-01-23T01:54:11.934Z,23.38
2023-01-23T01:56:51.713Z,26.33
2023-01-23T01:59:20.199Z,26.02
2023-01-23T02:01:50.477Z,29.58
2023-01-23T02:04:17.820Z,31.75
2023-01-23T02:06:44.534Z,34.70
2023-01-23T02:09:20.315Z,25.90
2023-01-23T02:11:47.112Z,26.05
2023-01-23T02:14:14.532Z,27.23
2023-01-23T02:16:46.478Z,28.83
2023-01-23T02:19:52.110Z,27.35
2023-01-23T02:22:40.196Z,32.28
2023-01-23T02:25:16.669Z,27.23
2023-01-23T02:27:43.223Z,27.13
2023-01-23T02:30:11.101Z,24.42
2023-01-23T02:32:37.688Z,21.85
2023-01-23T02:35:11.786Z,22.15
2023-01-23T02:37:42.655Z,21.73
2023-01-23T02:40:10.231Z,21.88
2023-01-23T02:42:40.804Z,22.58
2023-01-23T02:45:07.617Z,22.58
2023-01-23T02:47:34.158Z,22.88
2023-01-23T02:50:00.714Z,20.88
2023-01-23T02:52:27.173Z,22.83
2023-01-23T02:54:53.972Z,22.88
2023-01-23T02:57:20.497Z,21.92
2023-01-23T03:00:05.564Z,24.10
2023-01-23T03:02:31.977Z,22.58
2023-01-23T03:04:58.536Z,23.85
2023-01-23T03:07:24.949Z,24.50
2023-01-23T03:09:52.124Z,23.92
2023-01-23T03:12:18.669Z,23.98
2023-01-23T03:14:45.237Z,26.98
2023-01-23T03:17:14.908Z,25.67
2023-01-23T03:19:41.659Z,27.10
2023-01-23T03:22:08.176Z,28.38
2023-01-23T03:24:35.644Z,24.55
2023-01-23T03:27:02.542Z,22.17
2023-01-23T03:29:47.642Z,24.73
2023-01-23T03:32:15.281Z,24.23
2023-01-23T03:34:42.371Z,22.45
2023-01-23T03:37:11.676Z,22.70
2023-01-23T03:39:56.646Z,24.15
2023-01-23T03:42:23.384Z,23.55
2023-01-23T03:44:51.733Z,25.92
2023-01-23T03:47:18.301Z,24.98
2023-01-23T03:49:44.811Z,25.15
2023-01-23T03:52:11.227Z,24.73
2023-01-23T03:54:37.777Z,24.75
2023-01-23T03:57:04.463Z,25.48
2023-01-23T03:59:31.000Z,24.33
2023-01-23T04:01:58.185Z,25.33
2023-01-23T04:04:24.727Z,26.95
2023-01-23T04:06:51.098Z,28.75
2023-01-23T04:09:17.543Z,24.13
2023-01-23T04:11:44.225Z,26.08
2023-01-23T04:14:10.763Z,24.48
2023-01-23T04:16:37.391Z,24.60
2023-01-23T04:19:03.936Z,25.25
2023-01-23T04:21:30.394Z,24.75
2023-01-23T04:23:56.753Z,23.35
2023-01-23T04:26:23.253Z,27.85
2023-01-23T04:28:50.308Z,28.35
2023-01-23T04:31:16.978Z,27.85
2023-01-23T04:33:43.388Z,23.58
2023-01-23T04:36:11.434Z,28.13
2023-01-23T04:38:37.867Z,25.70
2023-01-23T04:41:04.541Z,30.38
2023-01-23T04:43:31.185Z,29.27
2023-01-23T04:45:58.367Z,29.80
2023-01-23T04:48:25.230Z,28.25
2023-01-23T04:50:52.369Z,27.58
2023-01-23T04:53:19.246Z,32.58
2023-01-23T04:55:49.460Z,25.25
2023-01-23T04:58:17.396Z,26.05
2023-01-23T05:00:43.919Z,25.48
2023-01-23T05:03:10.696Z,24.85
2023-01-23T05:05:37.262Z,25.25
2023-01-23T05:08:03.946Z,21.92
2023-01-23T05:10:30.729Z,23.83
2023-01-23T05:12:57.102Z,25.77
2023-01-23T05:15:23.612Z,26.73
2023-01-23T05:17:52.975Z,25.33
2023-01-23T05:20:20.778Z,25.83
2023-01-23T05:22:53.343Z,28.77
2023-01-23T05:25:26.502Z,25.67
2023-01-23T05:27:53.503Z,28.70
2023-01-23T05:30:23.337Z,31.15
2023-01-23T05:32:52.392Z,29.73
2023-01-23T05:35:19.497Z,24.05
2023-01-23T05:37:52.488Z,25.63
2023-01-23T05:40:20.155Z,26.25
2023-01-23T05:42:47.732Z,25.50
2023-01-23T05:45:15.193Z,26.10
2023-01-23T05:47:41.882Z,23.58
2023-01-23T05:50:12.802Z,25.48
2023-01-23T05:52:39.345Z,26.45
2023-01-23T05:55:06.347Z,25.73
2023-01-23T05:57:33.907Z,28.70
2023-01-23T06:00:00.347Z,25.55
2023-01-23T06:02:26.877Z,26.15
2023-01-23T06:04:55.737Z,28.95
2023-01-23T06:07:22.463Z,24.85
2023-01-23T06:09:49.112Z,23.05
2023-01-23T06:12:15.619Z,28.00
2023-01-23T06:14:42.127Z,29.60
2023-01-23T06:17:08.834Z,25.80
2023-01-23T06:19:35.418Z,26.83
2023-01-23T06:22:01.849Z,25.73
2023-01-23T06:24:28.403Z,25.05
2023-01-23T06:26:54.920Z,23.35
2023-01-23T06:29:21.480Z,33.33
2023-01-23T06:31:48.060Z,33.78
2023-01-23T06:34:15.263Z,27.45
2023-01-23T06:36:42.550Z,25.77
2023-01-23T06:39:13.086Z,25.40
2023-01-23T06:41:39.683Z,24.00
2023-01-23T06:44:07.685Z,23.67
2023-01-23T06:46:34.934Z,24.17
2023-01-23T06:49:03.918Z,23.70
2023-01-23T06:51:32.749Z,23.63
2023-01-23T06:53:59.292Z,22.27
2023-01-23T06:56:25.665Z,24.33
2023-01-23T06:58:53.091Z,66.38
2023-01-23T07:01:19.756Z,42.40
2023-01-23T07:03:46.365Z,25.50
2023-01-23T07:06:14.451Z,23.48
2023-01-23T07:08:42.205Z,26.20
2023-01-23T07:11:09.936Z,27.98
2023-01-23T07:13:36.494Z,34.30
2023-01-23T07:16:03.244Z,37.22
2023-01-23T07:18:30.371Z,28.90
2023-01-23T07:20:57.214Z,28.48
2023-01-23T07:23:23.841Z,32.58
2023-01-23T07:25:50.482Z,30.15
2023-01-23T07:28:16.992Z,31.20
2023-01-23T07:30:43.529Z,30.20
2023-01-23T07:33:13.383Z,30.00
2023-01-23T07:35:39.831Z,54.05
2023-01-23T07:38:06.188Z,38.97
2023-01-23T07:40:32.720Z,28.45
2023-01-23T07:42:59.246Z,29.38
2023-01-23T07:45:25.913Z,34.90
2023-01-23T07:47:52.374Z,39.35
2023-01-23T07:50:19.088Z,40.80
2023-01-23T07:52:45.750Z,32.17
2023-01-23T07:55:12.603Z,29.90
2023-01-23T07:57:39.162Z,27.58
2023-01-23T08:00:06.334Z,28.45
2023-01-23T08:02:32.920Z,32.53
2023-01-23T08:04:59.372Z,32.08
2023-01-23T08:07:25.857Z,30.15
2023-01-23T08:09:52.368Z,29.77
2023-01-23T08:12:18.985Z,31.08
2023-01-23T08:14:46.915Z,25.88
2023-01-23T08:17:13.499Z,30.42
2023-01-23T08:19:39.906Z,31.52
2023-01-23T08:22:06.544Z,31.27
2023-01-23T08:24:32.935Z,24.88
2023-01-23T08:26:59.795Z,27.67
2023-01-23T08:29:26.350Z,33.33
2023-01-23T08:31:55.102Z,30.33
2023-01-23T08:34:24.067Z,26.30
2023-01-23T08:36:50.907Z,25.20
2023-01-23T08:39:18.731Z,27.27
2023-01-23T08:41:45.289Z,25.02
2023-01-23T08:44:12.436Z,29.08
2023-01-23T08:46:39.297Z,24.83
2023-01-23T08:49:05.777Z,25.17
2023-01-23T08:51:32.331Z,27.75
2023-01-23T08:53:58.924Z,31.80
2023-01-23T08:56:25.860Z,28.88
2023-01-23T08:58:52.721Z,30.95
2023-01-23T09:01:25.548Z,29.48
2023-01-23T09:03:52.811Z,30.98
2023-01-23T09:06:20.893Z,25.52
2023-01-23T09:08:47.834Z,32.45
2023-01-23T09:11:15.541Z,42.67
2023-01-23T09:13:42.317Z,29.95
2023-01-23T09:16:09.539Z,31.08
2023-01-23T09:18:36.298Z,28.13
2023-01-23T09:21:11.981Z,28.58
2023-01-23T09:23:38.918Z,24.73
2023-01-23T09:26:08.867Z,26.67
2023-01-23T09:28:36.590Z,31.48
2023-01-23T09:31:07.871Z,26.38
2023-01-23T09:33:35.612Z,28.42
2023-01-23T09:36:03.547Z,23.38
2023-01-23T09:38:30.923Z,27.02
2023-01-23T09:40:58.862Z,26.30
2023-01-23T09:43:38.622Z,25.42
2023-01-23T09:46:16.169Z,27.80
2023-01-23T09:48:47.135Z,26.85
2023-01-23T09:51:25.421Z,24.85
2023-01-23T09:53:56.015Z,24.10
2023-01-23T09:56:35.443Z,24.55
2023-01-23T09:59:10.992Z,28.13
2023-01-23T10:01:37.917Z,25.35
2023-01-23T10:04:05.087Z,37.85
2023-01-23T10:06:49.796Z,30.08
2023-01-23T10:09:29.587Z,27.65
2023-01-23T10:12:01.971Z,26.42
2023-01-23T10:14:49.962Z,23.70
2023-01-23T10:17:30.250Z,26.08
2023-01-23T10:20:30.525Z,26.15
2023-01-23T10:23:23.199Z,25.67
2023-01-23T10:25:50.055Z,24.73
2023-01-23T10:28:25.149Z,34.00
2023-01-23T10:30:59.106Z,22.20
2023-01-23T10:33:36.383Z,20.48
2023-01-23T10:36:23.389Z,21.15
2023-01-23T10:39:05.835Z,23.33
2023-01-23T10:41:33.707Z,21.85
2023-01-23T10:44:00.805Z,20.42
2023-01-23T10:46:38.378Z,20.75
2023-01-23T10:49:05.239Z,20.13
2023-01-23T10:51:34.867Z,22.55
2023-01-23T10:54:06.377Z,20.00
2023-01-23T10:56:37.189Z,26.92
2023-01-23T10:59:05.817Z,20.70
2023-01-23T11:01:36.471Z,20.02
2023-01-23T11:04:19.969Z,20.98
2023-01-23T11:07:01.449Z,19.52
2023-01-23T11:09:28.120Z,21.38
2023-01-23T11:12:05.704Z,22.02
2023-01-23T11:14:33.039Z,21.63
2023-01-23T11:17:16.547Z,21.10
2023-01-23T11:19:45.400Z,25.50
2023-01-23T11:22:39.217Z,21.30
2023-01-23T11:25:27.871Z,19.88
2023-01-23T11:28:03.397Z,19.30
2023-01-23T11:30:50.410Z,19.30
2023-01-23T11:33:42.583Z,17.85
2023-01-23T11:36:18.357Z,18.85
2023-01-23T11:38:56.669Z,18.60
2023-01-23T11:41:29.834Z,17.52
2023-01-23T11:43:56.368Z,19.30
2023-01-23T11:46:43.596Z,18.17
2023-01-23T11:49:28.680Z,17.15
2023-01-23T11:52:31.842Z,17.52
2023-01-23T11:55:27.114Z,16.13
2023-01-23T11:58:19.176Z,17.98
2023-01-23T12:01:05.072Z,13.63
2023-01-23T12:04:14.938Z,14.77
2023-01-23T12:06:53.391Z,11.63
2023-01-23T12:09:21.961Z,13.63
2023-01-23T12:12:16.769Z,11.93
2023-01-23T12:15:05.487Z,13.87
2023-01-23T12:17:38.804Z,12.68
2023-01-23T12:20:05.391Z,12.88
2023-01-23T12:22:41.073Z,12.07
2023-01-23T12:25:21.357Z,13.95
2023-01-23T12:27:58.089Z,12.13
2023-01-23T12:30:39.063Z,14.43
2023-01-23T12:33:47.248Z,12.73
2023-01-23T12:36:23.057Z,13.38
2023-01-23T12:39:23.699Z,15.20
2023-01-23T12:41:58.299Z,12.43
2023-01-23T12:44:36.157Z,12.07
2023-01-23T12:47:12.846Z,11.52
2023-01-23T12:49:50.640Z,13.05
2023-01-23T12:52:29.458Z,13.55
2023-01-23T12:55:03.478Z,56.23
2023-01-23T12:57:58.956Z,14.68
2023-01-23T13:00:58.438Z,16.08
2023-01-23T13:03:47.110Z,12.48
2023-01-23T13:06:41.080Z,14.88
2023-01-23T13:09:21.367Z,15.83
2023-01-23T13:11:52.865Z,17.42
2023-01-23T13:14:25.544Z,15.57
2023-01-23T13:17:02.849Z,14.50
2023-01-23T13:19:52.009Z,18.98
2023-01-23T13:22:28.597Z,14.87
2023-01-23T13:25:17.708Z,17.73
2023-01-23T13:27:59.826Z,15.57
2023-01-23T13:30:26.468Z,13.65
2023-01-23T13:33:06.888Z,14.60
2023-01-23T13:35:39.604Z,14.90
2023-01-23T13:38:21.349Z,14.77
2023-01-23T13:41:08.507Z,15.50
2023-01-23T13:43:50.470Z,18.23
2023-01-23T13:46:37.493Z,13.35
2023-01-23T14:24:23.398Z,13.98
2023-01-23T14:27:07.525Z,13.20
2023-01-23T14:29:34.888Z,13.23
2023-01-23T14:32:01.875Z,13.67
2023-01-23T14:34:28.946Z,13.88
2023-01-23T14:37:07.288Z,14.10
2023-01-23T14:39:35.410Z,13.55
2023-01-23T14:42:04.419Z,13.52
2023-01-23T14:44:39.991Z,13.27
2023-01-23T14:47:08.239Z,13.95
2023-01-23T14:49:37.158Z,13.75
2023-01-23T14:52:06.612Z,14.52
2023-01-23T14:54:36.861Z,14.43
2023-01-23T14:57:05.819Z,13.97
2023-01-23T14:59:41.623Z,12.98
2023-01-23T15:02:23.310Z,14.02
2023-01-23T15:05:18.326Z,15.23
2023-01-23T15:07:56.024Z,30.10
2023-01-23T15:10:44.643Z,13.93
2023-01-23T15:13:29.262Z,17.65
2023-01-23T15:16:01.850Z,13.30
2023-01-23T15:18:30.875Z,15.27
2023-01-23T15:21:02.769Z,15.40
2023-01-23T15:23:33.466Z,18.55
2023-01-23T15:26:08.873Z,14.07
2023-01-23T15:28:55.758Z,15.32
2023-01-23T15:31:34.977Z,15.48
2023-01-23T15:34:16.883Z,15.40
2023-01-23T15:36:49.078Z,16.53
2023-01-23T15:39:26.887Z,15.25
2023-01-23T15:42:03.130Z,14.93
2023-01-23T15:44:32.933Z,13.40
2023-01-23T15:47:04.022Z,15.00
2023-01-23T15:49:33.398Z,16.40
2023-01-23T15:52:02.865Z,25.13
2023-01-23T15:54:33.927Z,17.23
2023-01-23T15:57:07.412Z,16.30
2023-01-23T15:59:36.109Z,15.68
2023-01-23T16:02:02.613Z,15.07
2023-01-23T16:04:29.377Z,15.55
2023-01-23T16:06:57.472Z,17.92
2023-01-23T16:09:30.682Z,15.98
2023-01-23T16:11:59.055Z,16.73
2023-01-23T16:14:27.660Z,20.83
2023-01-23T16:16:55.337Z,21.15
2023-01-23T16:19:23.143Z,26.65
2023-01-23T16:22:03.166Z,19.38
2023-01-23T16:24:37.799Z,18.02
2023-01-23T16:27:04.963Z,18.33
2023-01-23T16:29:33.883Z,16.38
2023-01-23T16:32:02.770Z,18.75
2023-01-23T16:34:29.581Z,19.52
2023-01-23T16:36:58.662Z,18.85
2023-01-23T16:39:32.026Z,20.93
2023-01-23T16:41:59.821Z,27.13
2023-01-23T16:44:26.945Z,22.08
2023-01-23T16:46:54.343Z,27.55
2023-01-23T16:49:21.446Z,25.20
2023-01-23T16:51:56.571Z,24.25
2023-01-23T16:54:23.419Z,22.58
2023-01-23T16:56:51.704Z,23.67
2023-01-23T16:59:28.347Z,29.63
2023-01-23T17:01:55.766Z,26.83
2023-01-23T17:04:22.216Z,22.83
2023-01-23T17:06:49.183Z,23.48
2023-01-23T17:09:16.544Z,22.75
2023-01-23T17:11:47.005Z,27.33
2023-01-23T17:14:17.970Z,23.45
2023-01-23T17:16:45.352Z,23.35
2023-01-23T17:19:33.590Z,27.80
2023-01-23T17:22:01.626Z,22.10
2023-01-23T17:24:28.959Z,23.52
2023-01-23T17:26:55.576Z,26.08
2023-01-23T17:29:23.024Z,22.90
2023-01-23T17:31:49.632Z,23.55
2023-01-23T17:34:21.841Z,26.30
2023-01-23T17:36:49.122Z,23.98
2023-01-23T17:39:15.486Z,24.85
2023-01-23T17:41:42.008Z,26.35
2023-01-23T17:44:08.526Z,24.25
2023-01-23T17:46:39.708Z,25.13
2023-01-23T17:49:28.578Z,26.23
2023-01-23T17:51:57.710Z,27.20
2023-01-23T17:54:24.406Z,22.10
2023-01-23T17:56:50.752Z,24.20
2023-01-23T17:59:17.266Z,25.52
2023-01-23T18:01:43.980Z,23.60
2023-01-23T18:04:17.406Z,23.50
2023-01-23T18:06:44.597Z,23.77
2023-01-23T18:09:11.641Z,25.27
2023-01-23T18:11:41.246Z,22.42
2023-01-23T18:14:26.851Z,21.58
2023-01-23T18:16:54.176Z,20.45
2023-01-23T18:19:23.768Z,22.63
2023-01-23T18:21:53.939Z,29.25
2023-01-23T18:24:27.498Z,27.33
2023-01-23T18:27:11.854Z,22.70
2023-01-23T18:29:55.458Z,22.27
2023-01-23T18:32:43.632Z,21.70
2023-01-23T18:35:27.457Z,21.65
2023-01-23T18:38:19.596Z,27.00
2023-01-23T18:41:11.499Z,24.48
2023-01-23T18:43:50.364Z,22.73
2023-01-23T18:46:20.396Z,23.63
2023-01-23T18:48:49.521Z,29.13
2023-01-23T18:51:34.448Z,26.35
2023-01-23T18:54:32.663Z,30.95
2023-01-23T18:57:15.896Z,26.52
2023-01-23T19:00:39.976Z,23.55
2023-01-23T19:03:38.184Z,24.20
2023-01-23T19:06:12.969Z,27.27
2023-01-23T19:08:40.818Z,23.85
2023-01-23T19:11:21.020Z,25.85
2023-01-23T19:14:05.204Z,21.95
2023-01-23T19:16:33.564Z,24.75
2023-01-23T19:19:15.439Z,25.38
2023-01-23T19:21:43.005Z,27.90
2023-01-23T19:24:11.289Z,25.15
2023-01-23T19:26:41.005Z,23.02
2023-01-23T19:29:20.931Z,25.67
2023-01-23T19:32:03.489Z,28.25
2023-01-23T19:34:31.754Z,23.55
2023-01-23T19:36:58.335Z,22.35
2023-01-23T19:39:24.827Z,22.52
2023-01-23T19:41:53.347Z,23.10
2023-01-23T19:44:24.236Z,21.80
2023-01-23T19:46:52.307Z,24.98
2023-01-23T19:49:19.000Z,23.50
2023-01-23T19:51:45.529Z,23.93
2023-01-23T19:54:14.203Z,34.55
2023-01-23T19:56:42.229Z,25.48
2023-01-23T19:59:09.334Z,23.63
2023-01-23T20:04:28.785Z,21.88
2023-01-23T20:06:55.267Z,23.52
2023-01-23T20:09:21.877Z,22.85
2023-01-23T20:11:49.281Z,22.73
2023-01-23T20:14:15.996Z,24.35
2023-01-23T20:16:43.637Z,21.50
2023-01-23T20:19:14.950Z,22.20
2023-01-23T20:21:41.688Z,22.52
2023-01-23T20:24:08.440Z,23.05
2023-01-23T20:26:35.142Z,24.67
2023-01-23T20:29:01.788Z,22.37
2023-01-23T20:31:29.537Z,27.40
2023-01-23T20:33:55.981Z,23.17
2023-01-23T20:36:22.524Z,22.38
2023-01-23T20:38:48.892Z,23.02
2023-01-23T20:41:21.239Z,25.43
2023-01-23T20:43:48.268Z,23.02
2023-01-23T20:46:16.264Z,23.65
2023-01-23T20:48:44.844Z,22.55
2023-01-23T20:51:12.640Z,22.25
2023-01-23T20:53:39.705Z,22.30
2023-01-23T20:56:08.171Z,22.55
2023-01-23T20:58:55.272Z,21.63
2023-01-23T21:01:24.315Z,22.00
2023-01-23T21:03:51.090Z,21.65
2023-01-23T21:06:18.522Z,20.85
2023-01-23T21:08:45.840Z,22.30
2023-01-23T21:11:20.004Z,21.70
2023-01-23T21:13:51.303Z,21.50
2023-01-23T21:16:18.463Z,18.30
2023-01-23T21:18:46.970Z,20.50
2023-01-23T21:21:16.366Z,24.20
2023-01-23T21:23:43.351Z,22.75
2023-01-23T21:26:09.812Z,20.65
2023-01-23T21:28:37.309Z,21.58
2023-01-23T21:31:11.623Z,19.83
2023-01-23T21:33:40.565Z,21.60
2023-01-23T21:36:07.599Z,26.65
2023-01-23T21:38:34.126Z,57.60
2023-01-23T21:41:00.758Z,24.98
2023-01-23T21:43:27.322Z,19.93
2023-01-23T21:45:53.888Z,21.55
2023-01-23T21:48:20.308Z,27.52
2023-01-23T21:50:46.858Z,25.05
2023-01-23T21:53:13.178Z,23.77
2023-01-23T21:55:39.668Z,27.77
2023-01-23T21:58:06.257Z,21.17
2023-01-23T22:00:51.338Z,21.13
2023-01-23T22:03:17.932Z,20.73
2023-01-23T22:05:44.476Z,21.42
2023-01-23T22:08:10.971Z,21.40
2023-01-23T22:10:38.216Z,21.10
2023-01-23T22:13:04.791Z,22.67
2023-01-23T22:15:31.300Z,20.35
2023-01-23T22:17:57.688Z,18.95
2023-01-23T22:20:24.230Z,18.60
2023-01-23T22:22:50.761Z,18.73
2023-01-23T22:25:17.392Z,17.52
2023-01-23T22:27:43.904Z,22.63
2023-01-23T22:30:10.939Z,21.35
2023-01-23T22:32:37.476Z,20.60
2023-01-23T22:35:04.144Z,19.38
2023-01-23T22:37:30.920Z,18.70
2023-01-23T22:39:57.478Z,18.65
2023-01-23T22:42:24.046Z,18.42
2023-01-23T22:44:50.638Z,20.17
2023-01-23T22:47:17.173Z,19.08
2023-01-23T22:49:44.145Z,18.83
2023-01-23T22:52:10.753Z,16.25
2023-01-23T22:54:37.270Z,20.63
2023-01-23T22:57:03.807Z,18.55
2023-01-23T22:59:30.395Z,22.15
2023-01-23T23:01:56.823Z,26.52
2023-01-23T23:04:23.341Z,24.00
2023-01-23T23:06:49.987Z,23.70
2023-01-23T23:09:16.416Z,23.80
2023-01-23T23:11:44.227Z,27.13
2023-01-23T23:14:11.137Z,28.50
2023-01-23T23:16:37.699Z,27.33
2023-01-23T23:19:04.672Z,29.95
2023-01-23T23:21:35.682Z,28.23
2023-01-23T23:24:04.099Z,26.83
2023-01-23T23:26:31.680Z,23.33
2023-01-23T23:28:59.436Z,23.63
2023-01-23T23:31:26.029Z,27.75
2023-01-23T23:33:53.083Z,20.75
2023-01-23T23:36:20.141Z,22.30
2023-01-23T23:38:46.695Z,21.05
2023-01-23T23:41:16.081Z,20.05
2023-01-23T23:43:43.342Z,19.92
2023-01-23T23:46:12.249Z,20.55
2023-01-23T23:48:39.465Z,20.73
2023-01-23T23:51:08.559Z,19.58
2023-01-23T23:53:38.371Z,21.60
2023-01-23T23:56:05.788Z,20.20
2023-01-23T23:58:35.220Z,20.15
